createdAt,value
2018-06-23T00:02:06.667Z,102918.88
2018-06-23T00:04:38.224Z,102922.55
2018-06-23T00:07:12.700Z,102922.20
2018-06-23T00:09:44.107Z,102916.98
2018-06-23T00:12:15.550Z,102912.64
2018-06-23T00:14:48.509Z,102916.23
2018-06-23T00:17:21.100Z,102910.91
2018-06-23T00:19:54.331Z,102911.41
2018-06-23T00:22:28.770Z,102911.88
2018-06-23T00:25:01.959Z,102909.34
2018-06-23T00:27:33.434Z,102910.67
2018-06-23T00:30:08.186Z,102909.34
2018-06-23T00:32:41.026Z,102907.87
2018-06-23T00:35:14.268Z,102903.92
2018-06-23T00:37:46.331Z,102899.45
2018-06-23T00:40:19.681Z,102903.48
2018-06-23T00:42:52.557Z,102897.34
2018-06-23T00:45:27.099Z,102892.48
2018-06-23T00:48:00.061Z,102897.35
2018-06-23T00:50:34.398Z,102900.83
2018-06-23T00:53:06.813Z,102893.88
2018-06-23T00:55:38.329Z,102896.95
2018-06-23T00:58:09.734Z,102899.56
2018-06-23T01:00:44.007Z,102895.56
2018-06-23T01:03:17.023Z,102900.78
2018-06-23T01:05:50.034Z,102898.75
2018-06-23T01:08:24.820Z,102901.83
2018-06-23T01:10:59.108Z,102895.31
2018-06-23T01:13:29.667Z,102895.31
2018-06-23T01:16:01.402Z,102901.61
2018-06-23T01:18:36.119Z,102899.38
2018-06-23T01:21:08.258Z,102902.08
2018-06-23T01:23:41.375Z,102898.05
2018-06-23T01:26:15.728Z,102899.39
2018-06-23T01:28:48.652Z,102901.10
2018-06-23T01:31:22.994Z,102904.23
2018-06-23T01:33:57.643Z,102895.50
2018-06-23T01:36:28.285Z,102887.48
2018-06-23T01:39:00.930Z,102887.54
2018-06-23T01:41:35.262Z,102890.63
2018-06-23T01:44:09.813Z,102893.17
2018-06-23T01:46:42.694Z,102891.84
2018-06-23T01:49:15.799Z,102887.95
2018-06-23T01:51:48.226Z,102885.27
2018-06-23T01:54:19.742Z,102890.61
2018-06-23T01:56:52.910Z,102886.64
2018-06-23T01:59:24.282Z,102894.48
2018-06-23T02:01:53.912Z,102887.86
2018-06-23T02:04:26.699Z,102883.88
2018-06-23T02:06:59.098Z,102887.95
2018-06-23T02:09:29.981Z,102885.66
2018-06-23T02:12:04.365Z,102885.11
2018-06-23T02:14:52.698Z,102883.80
2018-06-23T02:17:43.290Z,102883.33
2018-06-23T02:20:33.471Z,102891.11
2018-06-23T02:23:24.000Z,102886.70
2018-06-23T02:26:14.072Z,102882.98
2018-06-23T02:29:01.024Z,102883.80
2018-06-23T02:31:49.370Z,102881.43
2018-06-23T02:34:37.361Z,102876.67
2018-06-23T02:37:09.040Z,102871.21
2018-06-23T02:39:40.013Z,102875.91
2018-06-23T02:42:14.612Z,102868.38
2018-06-23T02:44:47.547Z,102866.64
2018-06-23T02:47:20.455Z,102867.41
2018-06-23T02:49:55.588Z,102862.50
2018-06-23T02:52:30.570Z,102865.95
2018-06-23T02:55:04.961Z,102861.30
2018-06-23T02:57:38.039Z,102856.75
2018-06-23T03:00:09.309Z,102861.00
2018-06-23T03:02:40.721Z,102860.60
2018-06-23T03:05:13.595Z,102863.13
2018-06-23T03:07:47.824Z,102868.34
2018-06-23T03:10:20.899Z,102867.91
2018-06-23T03:12:53.772Z,102865.22
2018-06-23T03:15:28.027Z,102866.27
2018-06-23T03:17:58.025Z,102863.08
2018-06-23T03:20:33.423Z,102864.31
2018-06-23T03:23:06.304Z,102856.81
2018-06-23T03:25:40.636Z,102853.58
2018-06-23T03:28:10.545Z,102854.39
2018-06-23T03:30:41.915Z,102854.84
2018-06-23T03:33:16.238Z,102856.45
2018-06-23T03:35:50.229Z,102859.59
2018-06-23T03:38:24.682Z,102860.05
2018-06-23T03:40:56.162Z,102857.11
2018-06-23T03:43:27.596Z,102849.66
2018-06-23T03:46:00.455Z,102859.22
2018-06-23T03:48:34.824Z,102851.67
2018-06-23T03:51:07.741Z,102860.83
2018-06-23T03:53:40.900Z,102861.67
2018-06-23T03:56:13.859Z,102864.73
2018-06-23T03:58:46.463Z,102863.27
2018-06-23T04:01:20.734Z,102862.00
2018-06-23T04:03:53.829Z,102858.43
2018-06-23T04:06:26.716Z,102862.27
2018-06-23T04:08:59.291Z,102854.53
2018-06-23T04:11:30.716Z,102850.04
2018-06-23T04:14:02.183Z,102855.83
2018-06-23T04:16:34.973Z,102850.53
2018-06-23T04:19:05.576Z,102852.98
2018-06-23T04:21:36.932Z,102846.77
2018-06-23T04:24:09.477Z,102846.79
2018-06-23T04:26:43.975Z,102841.73
2018-06-23T04:29:18.388Z,102835.84
2018-06-23T04:31:51.119Z,102839.86
2018-06-23T04:34:25.520Z,102840.45
2018-06-23T04:36:58.310Z,102853.80
2018-06-23T04:39:27.488Z,102859.67
2018-06-23T04:42:02.073Z,102864.79
2018-06-23T04:44:34.938Z,102869.14
2018-06-23T04:47:07.803Z,102872.31
2018-06-23T04:49:40.046Z,102873.61
2018-06-23T04:52:11.525Z,102873.86
2018-06-23T04:54:42.819Z,102864.20
2018-06-23T04:57:15.826Z,102862.37
2018-06-23T04:59:47.563Z,102856.55
2018-06-23T05:02:17.432Z,102850.48
2018-06-23T05:04:50.204Z,102850.27
2018-06-23T05:07:20.206Z,102857.91
2018-06-23T05:09:54.341Z,102853.14
2018-06-23T05:12:26.359Z,102860.97
2018-06-23T05:15:00.715Z,102863.39
2018-06-23T05:17:34.089Z,102853.58
2018-06-23T05:20:07.052Z,102850.69
2018-06-23T05:22:39.956Z,102852.17
2018-06-23T05:25:13.399Z,102847.77
2018-06-23T05:27:44.733Z,102854.30
2018-06-23T05:30:17.687Z,102850.11
2018-06-23T05:32:49.134Z,102850.63
2018-06-23T05:35:18.250Z,102850.56
2018-06-23T05:37:49.694Z,102850.28
2018-06-23T05:40:21.111Z,102850.67
2018-06-23T05:42:51.019Z,102842.25
2018-06-23T05:45:22.709Z,102843.41
2018-06-23T05:47:57.087Z,102851.41
2018-06-23T05:50:28.449Z,102847.13
2018-06-23T05:52:59.819Z,102857.10
2018-06-23T05:55:30.906Z,102861.34
2018-06-23T05:58:02.396Z,102857.55
2018-06-23T06:00:36.762Z,102859.48
2018-06-23T06:03:10.126Z,102866.84
2018-06-23T06:05:44.370Z,102863.53
2018-06-23T06:08:17.608Z,102867.95
2018-06-23T06:10:50.441Z,102865.67
2018-06-23T06:13:23.258Z,102866.64
2018-06-23T06:15:57.861Z,102868.06
2018-06-23T06:18:28.376Z,102866.03
2018-06-23T06:21:01.815Z,102869.24
2018-06-23T06:23:34.942Z,102875.05
2018-06-23T06:26:06.351Z,102879.23
2018-06-23T06:28:39.125Z,102877.38
2018-06-23T06:31:12.051Z,102874.03
2018-06-23T06:33:44.849Z,102879.03
2018-06-23T06:36:19.052Z,102880.03
2018-06-23T06:38:51.801Z,102880.18
2018-06-23T06:41:25.770Z,102877.73
2018-06-23T06:43:58.477Z,102880.20
2018-06-23T06:46:31.377Z,102876.94
2018-06-23T06:49:01.999Z,102883.96
2018-06-23T06:51:34.797Z,102884.36
2018-06-23T06:54:07.209Z,102885.69
2018-06-23T06:56:39.255Z,102884.91
2018-06-23T06:59:12.004Z,102889.53
2018-06-23T07:01:46.667Z,102885.20
2018-06-23T07:04:20.352Z,102884.95
2018-06-23T07:06:55.157Z,102886.80
2018-06-23T07:09:25.015Z,102894.95
2018-06-23T07:11:56.823Z,102886.66
2018-06-23T07:14:31.168Z,102888.32
2018-06-23T07:17:02.608Z,102889.15
2018-06-23T07:19:37.473Z,102894.81
2018-06-23T07:22:10.276Z,102884.30
2018-06-23T07:24:43.107Z,102886.33
2018-06-23T07:27:15.908Z,102880.90
2018-06-23T07:29:50.118Z,102883.52
2018-06-23T07:32:23.741Z,102882.30
2018-06-23T07:34:55.353Z,102882.12
2018-06-23T07:37:26.881Z,102872.15
2018-06-23T07:40:01.188Z,102872.83
2018-06-23T07:42:32.592Z,102871.70
2018-06-23T07:45:06.861Z,102873.39
2018-06-23T07:47:41.223Z,102862.00
2018-06-23T07:50:15.521Z,102872.13
2018-06-23T07:52:47.013Z,102870.20
2018-06-23T07:55:19.846Z,102864.61
2018-06-23T07:57:52.668Z,102869.23
2018-06-23T08:00:24.005Z,102862.98
2018-06-23T08:02:58.755Z,102870.03
2018-06-23T08:05:31.717Z,102865.09
2018-06-23T08:08:03.911Z,102866.52
2018-06-23T08:10:36.849Z,102870.45
2018-06-23T08:13:11.162Z,102866.56
2018-06-23T08:15:44.825Z,102866.68
2018-06-23T08:18:17.826Z,102864.64
2018-06-23T08:20:51.986Z,102862.75
2018-06-23T08:23:26.200Z,102857.48
2018-06-23T08:25:57.546Z,102855.16
2018-06-23T08:28:29.462Z,102856.45
2018-06-23T08:31:02.271Z,102858.27
2018-06-23T08:33:32.115Z,102854.23
2018-06-23T08:36:06.385Z,102857.59
2018-06-23T08:38:40.432Z,102853.37
2018-06-23T08:41:11.794Z,102859.94
2018-06-23T08:43:43.952Z,102860.17
2018-06-23T08:46:15.561Z,102856.27
2018-06-23T08:48:49.725Z,102866.52
2018-06-23T08:51:23.941Z,102873.41
2018-06-23T08:53:56.389Z,102877.03
2018-06-23T08:56:27.812Z,102878.21
2018-06-23T08:58:59.186Z,102869.80
2018-06-23T09:01:33.477Z,102862.38
2018-06-23T09:04:05.289Z,102867.73
2018-06-23T09:06:38.089Z,102873.14
2018-06-23T09:09:13.132Z,102874.84
2018-06-23T09:11:45.894Z,102869.72
2018-06-23T09:14:20.130Z,102863.60
2018-06-23T09:16:53.037Z,102861.31
2018-06-23T09:19:23.481Z,102869.72
2018-06-23T09:21:55.449Z,102868.00
2018-06-23T09:24:28.267Z,102874.03
2018-06-23T09:26:59.717Z,102877.46
2018-06-23T09:29:31.663Z,102872.03
2018-06-23T09:32:03.050Z,102871.16
2018-06-23T09:34:35.945Z,102871.66
2018-06-23T09:37:08.642Z,102872.66
2018-06-23T09:39:39.986Z,102877.84
2018-06-23T09:42:12.195Z,102871.47
2018-06-23T09:44:42.758Z,102877.23
2018-06-23T09:47:14.118Z,102875.20
2018-06-23T09:49:47.837Z,102870.33
2018-06-23T09:52:19.163Z,102873.92
2018-06-23T09:54:53.469Z,102874.47
2018-06-23T09:57:27.751Z,102878.81
2018-06-23T10:00:02.054Z,102875.42
2018-06-23T10:02:33.351Z,102877.09
2018-06-23T10:05:04.748Z,102873.19
2018-06-23T10:07:35.007Z,102868.09
2018-06-23T10:10:04.063Z,102874.20
2018-06-23T10:12:36.444Z,102871.65
2018-06-23T10:15:08.832Z,102874.06
2018-06-23T10:17:40.274Z,102876.70
2018-06-23T10:20:10.135Z,102873.89
2018-06-23T10:22:40.801Z,102871.81
2018-06-23T10:25:12.954Z,102873.20
2018-06-23T10:27:47.268Z,102881.05
2018-06-23T10:30:18.805Z,102868.58
2018-06-23T10:32:49.332Z,102871.01
2018-06-23T10:35:21.553Z,102872.60
2018-06-23T10:37:55.054Z,102870.89
2018-06-23T10:40:28.296Z,102872.45
2018-06-23T10:42:59.593Z,102867.08
2018-06-23T10:45:32.702Z,102863.25
2018-06-23T10:48:06.977Z,102866.66
2018-06-23T10:50:41.930Z,102867.99
2018-06-23T10:53:14.741Z,102872.88
2018-06-23T10:55:47.712Z,102868.44
2018-06-23T10:58:20.571Z,102866.20
2018-06-23T11:00:54.103Z,102869.67
2018-06-23T11:03:28.322Z,102869.70
2018-06-23T11:06:02.131Z,102868.27
2018-06-23T11:08:33.479Z,102868.00
2018-06-23T11:11:06.208Z,102870.23
2018-06-23T11:13:39.742Z,102866.59
2018-06-23T11:16:11.598Z,102867.66
2018-06-23T11:18:45.833Z,102865.67
2018-06-23T11:21:20.245Z,102870.17
2018-06-23T11:23:53.045Z,102870.26
2018-06-23T11:26:25.791Z,102871.07
2018-06-23T11:28:59.163Z,102872.06
2018-06-23T11:31:30.537Z,102870.30
2018-06-23T11:34:03.344Z,102871.75
2018-06-23T11:36:36.149Z,102868.19
2018-06-23T11:39:13.429Z,102870.41
2018-06-23T11:41:46.230Z,102869.67
2018-06-23T11:44:20.095Z,102872.36
2018-06-23T11:46:53.175Z,102873.19
2018-06-23T11:49:28.421Z,102869.73
2018-06-23T11:52:00.717Z,102870.44
2018-06-23T11:54:33.074Z,102863.52
2018-06-23T11:57:07.516Z,102857.88
2018-06-23T11:59:41.745Z,102855.09
2018-06-23T12:02:15.238Z,102856.67
2018-06-23T12:04:48.702Z,102856.29
2018-06-23T12:07:22.372Z,102858.09
2018-06-23T12:09:56.843Z,102852.20
2018-06-23T12:12:26.742Z,102843.11
2018-06-23T12:14:59.597Z,102847.66
2018-06-23T12:17:33.941Z,102842.39
2018-06-23T12:20:08.727Z,102842.51
2018-06-23T12:22:38.488Z,102834.72
2018-06-23T12:25:10.857Z,102833.72
2018-06-23T12:27:43.716Z,102837.66
2018-06-23T12:30:16.652Z,102834.12
2018-06-23T12:32:50.023Z,102829.16
2018-06-23T12:35:22.820Z,102838.06
2018-06-23T12:37:52.456Z,102833.11
2018-06-23T12:40:25.331Z,102825.17
2018-06-23T12:42:57.407Z,102823.02
2018-06-23T12:45:30.141Z,102825.72
2018-06-23T12:48:02.004Z,102812.50
2018-06-23T12:50:34.844Z,102814.19
2018-06-23T12:53:08.274Z,102809.73
2018-06-23T12:55:40.567Z,102801.27
2018-06-23T12:58:13.538Z,102805.55
2018-06-23T13:00:44.986Z,102799.48
2018-06-23T13:03:16.338Z,102795.92
2018-06-23T13:05:47.700Z,102797.53
2018-06-23T13:08:20.556Z,102800.77
2018-06-23T13:10:55.057Z,102787.75
2018-06-23T13:13:27.861Z,102793.35
2018-06-23T13:15:59.884Z,102782.98
2018-06-23T13:18:32.656Z,102776.81
2018-06-23T13:21:03.982Z,102778.61
2018-06-23T13:23:36.916Z,102772.73
2018-06-23T13:26:09.979Z,102770.11
2018-06-23T13:28:44.330Z,102761.61
2018-06-23T13:31:15.711Z,102752.61
2018-06-23T13:33:50.117Z,102749.90
2018-06-23T13:36:22.945Z,102754.77
2018-06-23T13:38:54.860Z,102749.55
2018-06-23T13:41:28.105Z,102744.50
2018-06-23T13:44:00.156Z,102746.42
2018-06-23T13:46:33.071Z,102738.78
2018-06-23T13:49:06.583Z,102736.68
2018-06-23T13:51:36.553Z,102738.80
2018-06-23T13:54:08.525Z,102731.61
2018-06-23T13:56:40.859Z,102722.17
2018-06-23T13:59:15.217Z,102719.49
2018-06-23T14:01:51.367Z,102718.65
2018-06-23T14:04:25.968Z,102720.48
2018-06-23T14:06:56.751Z,102722.78
2018-06-23T14:09:29.035Z,102722.02
2018-06-23T14:12:00.454Z,102714.00
2018-06-23T14:14:33.537Z,102711.20
2018-06-23T14:17:06.449Z,102707.48
2018-06-23T14:19:39.974Z,102706.78
2018-06-23T14:22:12.823Z,102703.57
2018-06-23T14:24:44.293Z,102699.02
2018-06-23T14:27:17.089Z,102699.06
2018-06-23T14:29:50.009Z,102697.66
2018-06-23T14:32:23.059Z,102696.78
2018-06-23T14:34:55.970Z,102680.05
2018-06-23T14:37:29.062Z,102684.20
2018-06-23T14:40:00.523Z,102671.05
2018-06-23T14:42:33.284Z,102676.64
2018-06-23T14:45:05.191Z,102675.09
2018-06-23T14:47:38.597Z,102674.58
2018-06-23T14:50:11.594Z,102673.97
2018-06-23T14:52:44.449Z,102674.41
2018-06-23T14:55:15.926Z,102669.63
2018-06-23T14:57:48.760Z,102668.77
2018-06-23T15:00:21.670Z,102667.16
2018-06-23T15:02:53.216Z,102658.08
2018-06-23T15:05:26.418Z,102655.75
2018-06-23T15:07:59.426Z,102662.86
2018-06-23T15:11:07.051Z,102662.19
2018-06-23T15:13:40.115Z,102654.30
2018-06-23T15:16:12.934Z,102654.81
2018-06-23T15:18:47.334Z,102654.72
2018-06-23T15:21:18.532Z,102634.52
2018-06-23T15:23:51.599Z,102642.47
2018-06-23T15:26:24.802Z,102642.28
2018-06-23T15:28:57.545Z,102634.09
2018-06-23T15:31:31.980Z,102634.58
2018-06-23T15:34:04.896Z,102639.87
2018-06-23T15:36:39.679Z,102635.17
2018-06-23T15:39:12.439Z,102630.30
2018-06-23T15:41:46.118Z,102625.61
2018-06-23T15:44:18.956Z,102625.71
2018-06-23T15:46:53.485Z,102620.58
2018-06-23T15:49:27.731Z,102623.91
2018-06-23T15:52:00.658Z,102619.17
2018-06-23T15:54:33.652Z,102620.39
2018-06-23T15:57:05.053Z,102620.40
2018-06-23T15:59:38.708Z,102619.72
2018-06-23T16:02:09.160Z,102619.27
2018-06-23T16:04:40.583Z,102619.70
2018-06-23T16:07:13.588Z,102611.87
2018-06-23T16:09:46.606Z,102607.88
2018-06-23T16:12:20.837Z,102603.42
2018-06-23T16:14:52.422Z,102608.30
2018-06-23T16:17:23.847Z,102603.20
2018-06-23T16:19:58.623Z,102597.28
2018-06-23T16:22:30.038Z,102596.98
2018-06-23T16:25:03.457Z,102598.90
2018-06-23T16:27:36.613Z,102598.48
2018-06-23T16:30:09.848Z,102599.09
2018-06-23T16:32:42.278Z,102600.45
2018-06-23T16:35:14.883Z,102590.17
2018-06-23T16:37:44.576Z,102585.38
2018-06-23T16:40:17.325Z,102590.13
2018-06-23T16:42:50.275Z,102581.85
2018-06-23T16:45:21.627Z,102586.95
2018-06-23T16:47:56.262Z,102585.91
2018-06-23T16:50:29.095Z,102587.33
2018-06-23T16:53:01.934Z,102578.84
2018-06-23T16:55:32.926Z,102583.27
2018-06-23T16:58:06.335Z,102578.16
2018-06-23T17:00:39.648Z,102584.95
2018-06-23T17:03:12.516Z,102578.20
2018-06-23T17:05:45.383Z,102583.56
2018-06-23T17:08:16.769Z,102578.14
2018-06-23T17:10:50.066Z,102575.05
2018-06-23T17:13:23.201Z,102579.01
2018-06-23T17:15:55.925Z,102572.77
2018-06-23T17:18:27.473Z,102564.33
2018-06-23T17:21:01.853Z,102566.91
2018-06-23T17:23:34.662Z,102566.31
2018-06-23T17:26:07.547Z,102567.70
2018-06-23T17:28:41.719Z,102568.58
2018-06-23T17:31:16.057Z,102562.31
2018-06-23T17:33:50.651Z,102553.61
2018-06-23T17:36:25.426Z,102552.37
2018-06-23T17:38:57.155Z,102547.28
2018-06-23T17:41:32.028Z,102545.14
2018-06-23T17:44:01.981Z,102547.63
2018-06-23T17:46:35.055Z,102547.16
2018-06-23T17:49:07.955Z,102547.38
2018-06-23T17:51:42.332Z,102552.87
2018-06-23T17:54:13.710Z,102547.12
2018-06-23T17:56:48.055Z,102545.00
2018-06-23T17:59:21.285Z,102550.16
2018-06-23T18:01:52.758Z,102548.28
2018-06-23T18:04:27.197Z,102550.52
2018-06-23T18:06:58.599Z,102547.63
2018-06-23T18:09:31.961Z,102548.13
2018-06-23T18:12:04.874Z,102543.56
2018-06-23T18:14:39.056Z,102541.75
2018-06-23T18:17:11.836Z,102537.11
2018-06-23T18:19:46.140Z,102534.58
2018-06-23T18:22:18.318Z,102537.08
2018-06-23T18:24:51.751Z,102533.43
2018-06-23T18:27:24.931Z,102533.18
2018-06-23T18:29:59.232Z,102534.61
2018-06-23T18:32:32.028Z,102532.95
2018-06-23T18:35:03.355Z,102531.34
2018-06-23T18:37:36.602Z,102526.03
2018-06-23T18:40:07.748Z,102524.73
2018-06-23T18:42:39.053Z,102524.80
2018-06-23T18:45:13.426Z,102527.52
2018-06-23T18:47:46.350Z,102527.97
2018-06-23T18:50:19.273Z,102527.56
2018-06-23T18:52:52.018Z,102527.92
2018-06-23T18:55:25.661Z,102527.75
2018-06-23T18:57:58.807Z,102530.52
2018-06-23T19:00:30.141Z,102528.42
2018-06-23T19:03:02.061Z,102527.00
2018-06-23T19:05:36.567Z,102523.05
2018-06-23T19:08:09.500Z,102525.05
2018-06-23T19:10:42.314Z,102516.09
2018-06-23T19:13:15.166Z,102521.63
2018-06-23T19:15:49.406Z,102523.75
2018-06-23T19:18:22.241Z,102516.98
2018-06-23T19:20:54.835Z,102524.53
2018-06-23T19:23:24.723Z,102528.05
2018-06-23T19:25:57.628Z,102524.66
2018-06-23T19:28:30.538Z,102529.53
2018-06-23T19:31:00.141Z,102528.15
2018-06-23T19:33:31.523Z,102525.63
2018-06-23T19:36:04.814Z,102525.91
2018-06-23T19:38:38.991Z,102530.14
2018-06-23T19:41:28.280Z,102533.10
2018-06-23T19:44:01.075Z,102537.30
2018-06-23T19:46:33.835Z,102535.44
2018-06-23T19:49:04.417Z,102533.85
2018-06-23T19:51:35.807Z,102532.95
2018-06-23T19:54:10.310Z,102532.06
2018-06-23T19:56:41.651Z,102533.45
2018-06-23T19:59:12.972Z,102531.92
2018-06-23T20:01:45.989Z,102533.19
2018-06-23T20:04:20.579Z,102534.38
2018-06-23T20:06:51.957Z,102531.94
2018-06-23T20:09:25.382Z,102537.61
2018-06-23T20:11:59.921Z,102541.28
2018-06-23T20:14:31.413Z,102542.42
2018-06-23T20:17:04.364Z,102546.50
2018-06-23T20:19:35.935Z,102545.66
2018-06-23T20:22:10.091Z,102551.95
2018-06-23T20:24:43.038Z,102553.48
2018-06-23T20:27:16.190Z,102548.55
2018-06-23T20:29:48.999Z,102551.61
2018-06-23T20:32:22.547Z,102555.80
2018-06-23T20:34:53.261Z,102556.64
2018-06-23T20:37:23.197Z,102555.61
2018-06-23T20:39:54.871Z,102558.66
2018-06-23T20:42:25.438Z,102559.44
2018-06-23T20:44:58.267Z,102562.53
2018-06-23T20:47:29.710Z,102560.23
2018-06-23T20:50:02.525Z,102553.26
2018-06-23T20:52:36.880Z,102555.86
2018-06-23T20:55:09.801Z,102554.66
2018-06-23T20:57:43.405Z,102554.83
2018-06-23T21:00:16.218Z,102550.53
2018-06-23T21:02:46.174Z,102546.03
2018-06-23T21:05:19.032Z,102545.48
2018-06-23T21:07:51.844Z,102542.80
2018-06-23T21:10:51.431Z,102541.65
2018-06-23T21:13:24.281Z,102549.08
2018-06-23T21:15:57.904Z,102547.97
2018-06-23T21:18:30.752Z,102538.66
2018-06-23T21:21:02.341Z,102540.30
2018-06-23T21:23:35.214Z,102542.67
2018-06-23T21:26:08.363Z,102545.64
2018-06-23T21:28:41.166Z,102544.38
2018-06-23T21:31:14.127Z,102547.81
2018-06-23T21:33:47.047Z,102548.53
2018-06-23T21:36:20.252Z,102546.03
2018-06-23T21:38:51.603Z,102544.47
2018-06-23T21:41:25.892Z,102544.38
2018-06-23T21:43:58.675Z,102541.91
2018-06-23T21:46:31.568Z,102544.55
2018-06-23T21:49:03.779Z,102547.36
2018-06-23T21:51:38.042Z,102541.89
2018-06-23T21:54:09.614Z,102539.23
2018-06-23T21:56:42.482Z,102540.33
2018-06-23T21:59:12.326Z,102536.39
2018-06-23T22:01:43.739Z,102528.55
2018-06-23T22:04:16.540Z,102528.63
2018-06-23T22:06:49.500Z,102529.55
2018-06-23T22:09:22.344Z,102532.97
2018-06-23T22:11:56.574Z,102544.16
2018-06-23T22:14:29.304Z,102544.91
2018-06-23T22:17:00.704Z,102544.47
2018-06-23T22:19:32.063Z,102545.37
2018-06-23T22:22:04.637Z,102540.37
2018-06-23T22:24:36.134Z,102537.02
2018-06-23T22:27:06.994Z,102540.59
2018-06-23T22:29:41.260Z,102539.31
2018-06-23T22:32:15.480Z,102543.95
2018-06-23T22:34:48.717Z,102542.20
2018-06-23T22:37:21.476Z,102538.41
2018-06-23T22:39:54.572Z,102535.37
2018-06-23T22:42:26.573Z,102534.41
2018-06-23T22:44:58.036Z,102526.25
2018-06-23T22:47:29.833Z,102532.22
2018-06-23T22:50:04.780Z,102527.75
2018-06-23T22:52:37.678Z,102528.55
2018-06-23T22:55:08.943Z,102528.48
2018-06-23T22:57:43.299Z,102534.30
2018-06-23T23:00:17.116Z,102528.44
2018-06-23T23:02:51.717Z,102520.91
2018-06-23T23:05:22.944Z,102525.24
2018-06-23T23:07:54.769Z,102518.95
2018-06-23T23:10:26.141Z,102507.80
2018-06-23T23:13:00.734Z,102508.87
2018-06-23T23:15:35.067Z,102506.10
2018-06-23T23:18:06.843Z,102496.98
2018-06-23T23:20:40.978Z,102496.92
2018-06-23T23:23:13.058Z,102500.28
2018-06-23T23:25:45.854Z,102509.45
2018-06-23T23:28:15.878Z,102512.03
2018-06-23T23:30:47.446Z,102508.50
2018-06-23T23:33:18.089Z,102504.17
2018-06-23T23:35:51.633Z,102497.72
2018-06-23T23:38:22.329Z,102493.14
2018-06-23T23:40:55.112Z,102492.98
2018-06-23T23:43:27.988Z,102493.13
2018-06-23T23:45:59.346Z,102487.30
2018-06-23T23:48:32.161Z,102490.25
2018-06-23T23:51:04.992Z,102491.39
2018-06-23T23:53:36.315Z,102491.46
2018-06-23T23:56:07.732Z,102492.05
2018-06-23T23:58:41.941Z,102487.51
